sensor_id;sensor_type;location;lat;lon;timestamp;P1;durP1;ratioP1;P2;durP2;ratioP2
62457;SDS011;48509;52.122;5.250;2024-02-21T00:00:06;19.11;;;5.2;;
62457;SDS011;48509;52.122;5.250;2024-02-21T00:01:43;15.5;;;4.7;;
62457;SDS011;48509;52.122;5.250;2024-02-21T00:04:56;19.3;;;5.0;;
62457;SDS011;48509;52.122;5.250;2024-02-21T00:06:32;19.11;;;5.0;;
62457;SDS011;48509;52.122;5.250;2024-02-21T00:08:08;21.0;;;5.4;;
62457;SDS011;48509;52.122;5.250;2024-02-21T00:11:21;22.6;;;5.4;;
62457;SDS011;48509;52.122;5.250;2024-02-21T00:12:57;19.91;;;5.3;;
62457;SDS011;48509;52.122;5.250;2024-02-21T00:14:33;17.8;;;4.61;;
62457;SDS011;48509;52.122;5.250;2024-02-21T00:17:45;18.61;;;4.41;;
62457;SDS011;48509;52.122;5.250;2024-02-21T00:19:21;17.61;;;4.91;;
62457;SDS011;48509;52.122;5.250;2024-02-21T00:20:57;20.2;;;4.8;;
62457;SDS011;48509;52.122;5.250;2024-02-21T00:24:09;18.5;;;4.5;;
62457;SDS011;48509;52.122;5.250;2024-02-21T00:25:45;16.8;;;4.8;;
62457;SDS011;48509;52.122;5.250;2024-02-21T00:27:21;21.3;;;5.4;;
62457;SDS011;48509;52.122;5.250;2024-02-21T00:28:57;22.3;;;5.0;;
62457;SDS011;48509;52.122;5.250;2024-02-21T00:32:10;26.0;;;5.4;;
62457;SDS011;48509;52.122;5.250;2024-02-21T00:33:46;21.5;;;4.61;;
62457;SDS011;48509;52.122;5.250;2024-02-21T00:35:22;19.5;;;4.8;;
62457;SDS011;48509;52.122;5.250;2024-02-21T00:38:34;22.6;;;5.2;;
62457;SDS011;48509;52.122;5.250;2024-02-21T00:40:10;24.0;;;5.2;;
62457;SDS011;48509;52.122;5.250;2024-02-21T00:41:47;19.61;;;4.8;;
62457;SDS011;48509;52.122;5.250;2024-02-21T00:44:59;17.11;;;4.3;;
62457;SDS011;48509;52.122;5.250;2024-02-21T00:46:35;17.8;;;4.91;;
62457;SDS011;48509;52.122;5.250;2024-02-21T00:48:12;17.41;;;5.0;;
62457;SDS011;48509;52.122;5.250;2024-02-21T00:51:24;21.0;;;4.8;;
62457;SDS011;48509;52.122;5.250;2024-02-21T00:53:00;21.7;;;4.5;;
62457;SDS011;48509;52.122;5.250;2024-02-21T00:54:36;19.7;;;5.0;;
62457;SDS011;48509;52.122;5.250;2024-02-21T00:56:12;21.3;;;4.8;;
62457;SDS011;48509;52.122;5.250;2024-02-21T00:59:24;19.41;;;4.3;;
62457;SDS011;48509;52.122;5.250;2024-02-21T01:01:01;22.6;;;5.0;;
62457;SDS011;48509;52.122;5.250;2024-02-21T01:02:37;23.2;;;4.91;;
62457;SDS011;48509;52.122;5.250;2024-02-21T01:05:49;20.0;;;5.4;;
62457;SDS011;48509;52.122;5.250;2024-02-21T01:07:26;17.5;;;5.0;;
62457;SDS011;48509;52.122;5.250;2024-02-21T01:09:02;21.5;;;4.91;;
62457;SDS011;48509;52.122;5.250;2024-02-21T01:12:15;15.7;;;4.3;;
62457;SDS011;48509;52.122;5.250;2024-02-21T01:13:51;22.1;;;5.0;;
62457;SDS011;48509;52.122;5.250;2024-02-21T01:15:27;21.0;;;5.2;;
62457;SDS011;48509;52.122;5.250;2024-02-21T01:17:03;16.11;;;5.11;;
62457;SDS011;48509;52.122;5.250;2024-02-21T01:20:15;23.1;;;6.1;;
62457;SDS011;48509;52.122;5.250;2024-02-21T01:21:51;20.9;;;5.11;;
62457;SDS011;48509;52.122;5.250;2024-02-21T01:23:28;19.8;;;5.4;;
62457;SDS011;48509;52.122;5.250;2024-02-21T01:26:41;22.8;;;5.5;;
62457;SDS011;48509;52.122;5.250;2024-02-21T01:28:17;18.11;;;5.4;;
62457;SDS011;48509;52.122;5.250;2024-02-21T01:29:54;18.61;;;5.0;;
62457;SDS011;48509;52.122;5.250;2024-02-21T01:33:06;15.1;;;4.91;;
62457;SDS011;48509;52.122;5.250;2024-02-21T01:34:42;27.2;;;5.9;;
62457;SDS011;48509;52.122;5.250;2024-02-21T01:36:18;23.0;;;5.7;;
62457;SDS011;48509;52.122;5.250;2024-02-21T01:39:30;18.0;;;5.8;;
62457;SDS011;48509;52.122;5.250;2024-02-21T01:41:07;22.4;;;5.8;;
62457;SDS011;48509;52.122;5.250;2024-02-21T01:42:43;24.1;;;5.4;;
62457;SDS011;48509;52.122;5.250;2024-02-21T01:44:19;16.2;;;4.8;;
62457;SDS011;48509;52.122;5.250;2024-02-21T01:47:33;17.5;;;5.0;;
62457;SDS011;48509;52.122;5.250;2024-02-21T01:49:11;21.1;;;5.7;;
62457;SDS011;48509;52.122;5.250;2024-02-21T01:50:48;17.61;;;5.5;;
62457;SDS011;48509;52.122;5.250;2024-02-21T01:54:01;16.5;;;5.3;;
62457;SDS011;48509;52.122;5.250;2024-02-21T01:55:37;20.6;;;5.7;;
62457;SDS011;48509;52.122;5.250;2024-02-21T01:57:13;23.6;;;5.9;;
62457;SDS011;48509;52.122;5.250;2024-02-21T02:00:27;22.4;;;6.3;;
62457;SDS011;48509;52.122;5.250;2024-02-21T02:02:04;19.61;;;6.0;;
62457;SDS011;48509;52.122;5.250;2024-02-21T02:03:41;19.2;;;6.3;;
62457;SDS011;48509;52.122;5.250;2024-02-21T02:05:19;27.9;;;6.6;;
62457;SDS011;48509;52.122;5.250;2024-02-21T02:08:35;22.0;;;6.2;;
62457;SDS011;48509;52.122;5.250;2024-02-21T02:10:12;19.91;;;6.9;;
62457;SDS011;48509;52.122;5.250;2024-02-21T02:11:48;18.7;;;6.2;;
62457;SDS011;48509;52.122;5.250;2024-02-21T02:15:01;20.9;;;6.8;;
62457;SDS011;48509;52.122;5.250;2024-02-21T02:16:38;19.11;;;6.1;;
62457;SDS011;48509;52.122;5.250;2024-02-21T02:18:19;18.2;;;6.3;;
62457;SDS011;48509;52.122;5.250;2024-02-21T02:19:56;21.3;;;6.1;;
62457;SDS011;48509;52.122;5.250;2024-02-21T02:23:19;24.1;;;6.4;;
62457;SDS011;48509;52.122;5.250;2024-02-21T02:24:57;20.0;;;6.6;;
62457;SDS011;48509;52.122;5.250;2024-02-21T02:26:34;21.4;;;6.9;;
62457;SDS011;48509;52.122;5.250;2024-02-21T02:31:22;24.7;;;7.0;;
62457;SDS011;48509;52.122;5.250;2024-02-21T02:32:58;22.0;;;8.0;;
62457;SDS011;48509;52.122;5.250;2024-02-21T02:34:34;24.4;;;7.3;;
62457;SDS011;48509;52.122;5.250;2024-02-21T02:37:48;24.8;;;7.3;;
62457;SDS011;48509;52.122;5.250;2024-02-21T02:39:25;25.4;;;7.5;;
62457;SDS011;48509;52.122;5.250;2024-02-21T02:41:01;21.2;;;7.6;;
62457;SDS011;48509;52.122;5.250;2024-02-21T02:44:13;25.2;;;6.9;;
62457;SDS011;48509;52.122;5.250;2024-02-21T02:45:49;21.5;;;7.6;;
62457;SDS011;48509;52.122;5.250;2024-02-21T02:47:25;22.4;;;7.6;;
62457;SDS011;48509;52.122;5.250;2024-02-21T02:50:37;21.7;;;7.0;;
62457;SDS011;48509;52.122;5.250;2024-02-21T02:52:13;21.5;;;7.5;;
62457;SDS011;48509;52.122;5.250;2024-02-21T02:53:49;20.6;;;7.3;;
62457;SDS011;48509;52.122;5.250;2024-02-21T02:55:26;22.5;;;7.9;;
62457;SDS011;48509;52.122;5.250;2024-02-21T02:58:38;21.0;;;6.9;;
62457;SDS011;48509;52.122;5.250;2024-02-21T03:00:14;24.4;;;7.5;;
62457;SDS011;48509;52.122;5.250;2024-02-21T03:01:51;16.8;;;7.0;;
62457;SDS011;48509;52.122;5.250;2024-02-21T03:05:11;20.11;;;7.6;;
62457;SDS011;48509;52.122;5.250;2024-02-21T03:06:49;19.91;;;7.1;;
62457;SDS011;48509;52.122;5.250;2024-02-21T03:08:25;21.9;;;8.0;;
62457;SDS011;48509;52.122;5.250;2024-02-21T03:10:01;21.9;;;8.0;;
62457;SDS011;48509;52.122;5.250;2024-02-21T03:13:14;23.6;;;7.8;;
62457;SDS011;48509;52.122;5.250;2024-02-21T03:14:51;19.5;;;7.6;;
62457;SDS011;48509;52.122;5.250;2024-02-21T03:16:27;24.6;;;7.7;;
62457;SDS011;48509;52.122;5.250;2024-02-21T03:19:40;25.7;;;8.2;;
62457;SDS011;48509;52.122;5.250;2024-02-21T03:21:16;20.9;;;8.1;;
62457;SDS011;48509;52.122;5.250;2024-02-21T03:22:52;23.6;;;8.0;;
62457;SDS011;48509;52.122;5.250;2024-02-21T03:26:07;16.11;;;7.7;;
62457;SDS011;48509;52.122;5.250;2024-02-21T03:27:43;24.3;;;8.5;;
62457;SDS011;48509;52.122;5.250;2024-02-21T03:29:19;23.9;;;8.5;;
62457;SDS011;48509;52.122;5.250;2024-02-21T03:30:55;20.7;;;7.7;;
62457;SDS011;48509;52.122;5.250;2024-02-21T03:34:10;23.5;;;8.71;;
62457;SDS011;48509;52.122;5.250;2024-02-21T03:35:46;20.11;;;8.4;;
62457;SDS011;48509;52.122;5.250;2024-02-21T03:37:22;25.4;;;8.81;;
62457;SDS011;48509;52.122;5.250;2024-02-21T03:40:34;22.5;;;7.5;;
62457;SDS011;48509;52.122;5.250;2024-02-21T03:42:10;15.1;;;6.7;;
62457;SDS011;48509;52.122;5.250;2024-02-21T03:43:47;23.1;;;8.2;;
62457;SDS011;48509;52.122;5.250;2024-02-21T03:46:59;19.3;;;7.9;;
62457;SDS011;48509;52.122;5.250;2024-02-21T03:48:36;20.11;;;7.4;;
62457;SDS011;48509;52.122;5.250;2024-02-21T03:50:13;20.2;;;7.1;;
62457;SDS011;48509;52.122;5.250;2024-02-21T03:51:49;17.8;;;8.5;;
62457;SDS011;48509;52.122;5.250;2024-02-21T03:55:01;20.5;;;7.9;;
62457;SDS011;48509;52.122;5.250;2024-02-21T03:56:38;20.8;;;8.1;;
62457;SDS011;48509;52.122;5.250;2024-02-21T03:58:15;19.11;;;8.5;;
62457;SDS011;48509;52.122;5.250;2024-02-21T04:01:27;23.0;;;8.1;;
62457;SDS011;48509;52.122;5.250;2024-02-21T04:03:03;19.91;;;8.0;;
62457;SDS011;48509;52.122;5.250;2024-02-21T04:04:42;17.61;;;8.1;;
62457;SDS011;48509;52.122;5.250;2024-02-21T04:07:55;25.6;;;8.2;;
62457;SDS011;48509;52.122;5.250;2024-02-21T04:09:31;17.8;;;7.4;;
62457;SDS011;48509;52.122;5.250;2024-02-21T04:11:07;23.6;;;8.0;;
62457;SDS011;48509;52.122;5.250;2024-02-21T04:14:19;17.8;;;7.8;;
62457;SDS011;48509;52.122;5.250;2024-02-21T04:15:55;21.4;;;7.4;;
62457;SDS011;48509;52.122;5.250;2024-02-21T04:17:31;16.7;;;7.9;;
62457;SDS011;48509;52.122;5.250;2024-02-21T04:19:07;16.0;;;7.1;;
62457;SDS011;48509;52.122;5.250;2024-02-21T04:22:19;19.8;;;6.7;;
62457;SDS011;48509;52.122;5.250;2024-02-21T04:23:56;17.5;;;7.1;;
62457;SDS011;48509;52.122;5.250;2024-02-21T04:25:32;18.11;;;7.7;;
62457;SDS011;48509;52.122;5.250;2024-02-21T04:28:44;19.61;;;8.31;;
62457;SDS011;48509;52.122;5.250;2024-02-21T04:30:21;17.61;;;7.8;;
62457;SDS011;48509;52.122;5.250;2024-02-21T04:31:57;20.0;;;8.1;;
62457;SDS011;48509;52.122;5.250;2024-02-21T04:35:09;21.7;;;8.5;;
62457;SDS011;48509;52.122;5.250;2024-02-21T04:36:45;15.7;;;7.9;;
62457;SDS011;48509;52.122;5.250;2024-02-21T04:38:21;23.0;;;9.0;;
62457;SDS011;48509;52.122;5.250;2024-02-21T04:39:57;18.41;;;8.9;;
62457;SDS011;48509;52.122;5.250;2024-02-21T04:43:10;21.6;;;8.81;;
62457;SDS011;48509;52.122;5.250;2024-02-21T04:44:46;17.7;;;8.5;;
62457;SDS011;48509;52.122;5.250;2024-02-21T04:46:22;18.5;;;8.9;;
62457;SDS011;48509;52.122;5.250;2024-02-21T04:49:34;20.11;;;8.9;;
62457;SDS011;48509;52.122;5.250;2024-02-21T04:51:11;18.8;;;9.6;;
62457;SDS011;48509;52.122;5.250;2024-02-21T04:52:47;16.9;;;9.31;;
62457;SDS011;48509;52.122;5.250;2024-02-21T04:56:03;18.0;;;9.4;;
62457;SDS011;48509;52.122;5.250;2024-02-21T04:57:39;21.1;;;10.21;;
62457;SDS011;48509;52.122;5.250;2024-02-21T04:59:16;15.6;;;9.31;;
62457;SDS011;48509;52.122;5.250;2024-02-21T05:00:53;21.4;;;9.5;;
62457;SDS011;48509;52.122;5.250;2024-02-21T05:04:05;20.11;;;10.5;;
62457;SDS011;48509;52.122;5.250;2024-02-21T05:05:41;21.5;;;10.4;;
62457;SDS011;48509;52.122;5.250;2024-02-21T05:07:17;15.6;;;9.6;;
62457;SDS011;48509;52.122;5.250;2024-02-21T05:10:29;23.8;;;10.9;;
62457;SDS011;48509;52.122;5.250;2024-02-21T05:12:05;19.0;;;10.3;;
62457;SDS011;48509;52.122;5.250;2024-02-21T05:13:41;18.7;;;10.7;;
62457;SDS011;48509;52.122;5.250;2024-02-21T05:16:55;16.0;;;9.81;;
62457;SDS011;48509;52.122;5.250;2024-02-21T05:18:31;21.7;;;10.6;;
62457;SDS011;48509;52.122;5.250;2024-02-21T05:20:07;17.0;;;10.6;;
62457;SDS011;48509;52.122;5.250;2024-02-21T05:23:20;19.91;;;10.6;;
62457;SDS011;48509;52.122;5.250;2024-02-21T05:24:56;15.3;;;10.1;;
62457;SDS011;48509;52.122;5.250;2024-02-21T05:26:32;20.41;;;11.1;;
62457;SDS011;48509;52.122;5.250;2024-02-21T05:28:08;17.61;;;10.21;;
62457;SDS011;48509;52.122;5.250;2024-02-21T05:31:23;19.41;;;11.5;;
62457;SDS011;48509;52.122;5.250;2024-02-21T05:34:40;23.7;;;12.0;;
62457;SDS011;48509;52.122;5.250;2024-02-21T05:37:52;19.5;;;11.5;;
62457;SDS011;48509;52.122;5.250;2024-02-21T05:39:28;19.8;;;10.6;;
62457;SDS011;48509;52.122;5.250;2024-02-21T05:41:04;17.3;;;10.6;;
62457;SDS011;48509;52.122;5.250;2024-02-21T05:42:41;21.5;;;11.5;;
62457;SDS011;48509;52.122;5.250;2024-02-21T05:45:54;19.7;;;11.5;;
62457;SDS011;48509;52.122;5.250;2024-02-21T05:47:30;18.3;;;11.0;;
62457;SDS011;48509;52.122;5.250;2024-02-21T05:49:06;19.41;;;10.8;;
62457;SDS011;48509;52.122;5.250;2024-02-21T05:52:18;19.2;;;10.21;;
62457;SDS011;48509;52.122;5.250;2024-02-21T05:53:55;18.91;;;10.8;;
62457;SDS011;48509;52.122;5.250;2024-02-21T05:55:31;14.6;;;9.4;;
62457;SDS011;48509;52.122;5.250;2024-02-21T05:58:44;17.0;;;10.7;;
62457;SDS011;48509;52.122;5.250;2024-02-21T06:00:20;17.91;;;10.1;;
62457;SDS011;48509;52.122;5.250;2024-02-21T06:01:56;16.2;;;10.9;;
62457;SDS011;48509;52.122;5.250;2024-02-21T06:05:09;18.3;;;10.5;;
62457;SDS011;48509;52.122;5.250;2024-02-21T06:06:45;15.4;;;10.21;;
62457;SDS011;48509;52.122;5.250;2024-02-21T06:08:22;16.4;;;9.6;;
62457;SDS011;48509;52.122;5.250;2024-02-21T06:09:58;20.6;;;11.3;;
62457;SDS011;48509;52.122;5.250;2024-02-21T06:13:10;16.8;;;10.5;;
62457;SDS011;48509;52.122;5.250;2024-02-21T06:14:46;22.3;;;11.4;;
62457;SDS011;48509;52.122;5.250;2024-02-21T06:16:22;21.8;;;11.9;;
62457;SDS011;48509;52.122;5.250;2024-02-21T06:19:34;23.5;;;12.5;;
62457;SDS011;48509;52.122;5.250;2024-02-21T06:21:11;19.11;;;10.9;;
62457;SDS011;48509;52.122;5.250;2024-02-21T06:22:47;19.61;;;12.3;;
62457;SDS011;48509;52.122;5.250;2024-02-21T06:26:00;19.91;;;12.3;;
62457;SDS011;48509;52.122;5.250;2024-02-21T06:27:36;25.0;;;13.7;;
62457;SDS011;48509;52.122;5.250;2024-02-21T06:29:12;23.5;;;12.4;;
62457;SDS011;48509;52.122;5.250;2024-02-21T06:30:48;21.2;;;12.8;;
62457;SDS011;48509;52.122;5.250;2024-02-21T06:34:00;22.5;;;13.5;;
62457;SDS011;48509;52.122;5.250;2024-02-21T06:35:36;22.6;;;12.9;;
62457;SDS011;48509;52.122;5.250;2024-02-21T06:37:15;24.5;;;13.1;;
62457;SDS011;48509;52.122;5.250;2024-02-21T06:40:27;26.8;;;13.1;;
62457;SDS011;48509;52.122;5.250;2024-02-21T06:42:04;25.0;;;13.3;;
62457;SDS011;48509;52.122;5.250;2024-02-21T06:43:40;25.0;;;13.3;;
62457;SDS011;48509;52.122;5.250;2024-02-21T06:46:53;25.2;;;13.5;;
62457;SDS011;48509;52.122;5.250;2024-02-21T06:48:29;24.1;;;14.2;;
62457;SDS011;48509;52.122;5.250;2024-02-21T06:50:05;27.2;;;14.8;;
62457;SDS011;48509;52.122;5.250;2024-02-21T06:54:54;24.1;;;14.4;;
62457;SDS011;48509;52.122;5.250;2024-02-21T06:56:30;29.7;;;15.3;;
62457;SDS011;48509;52.122;5.250;2024-02-21T06:58:07;28.3;;;15.5;;
62457;SDS011;48509;52.122;5.250;2024-02-21T07:01:19;26.8;;;15.1;;
62457;SDS011;48509;52.122;5.250;2024-02-21T07:02:55;29.5;;;16.2;;
62457;SDS011;48509;52.122;5.250;2024-02-21T07:04:31;31.0;;;17.0;;
62457;SDS011;48509;52.122;5.250;2024-02-21T07:07:43;31.9;;;15.7;;
62457;SDS011;48509;52.122;5.250;2024-02-21T07:09:19;28.7;;;15.8;;
62457;SDS011;48509;52.122;5.250;2024-02-21T07:10:55;27.3;;;15.5;;
62457;SDS011;48509;52.122;5.250;2024-02-21T07:14:07;32.9;;;15.9;;
62457;SDS011;48509;52.122;5.250;2024-02-21T07:15:44;32.9;;;17.11;;
62457;SDS011;48509;52.122;5.250;2024-02-21T07:17:20;26.7;;;17.3;;
62457;SDS011;48509;52.122;5.250;2024-02-21T07:18:56;28.2;;;17.0;;
62457;SDS011;48509;52.122;5.250;2024-02-21T07:22:08;33.4;;;18.11;;
62457;SDS011;48509;52.122;5.250;2024-02-21T07:23:44;31.6;;;15.9;;
62457;SDS011;48509;52.122;5.250;2024-02-21T07:25:20;35.0;;;18.3;;
62457;SDS011;48509;52.122;5.250;2024-02-21T07:28:32;29.1;;;16.2;;
62457;SDS011;48509;52.122;5.250;2024-02-21T07:30:09;30.1;;;16.61;;
62457;SDS011;48509;52.122;5.250;2024-02-21T07:31:46;33.3;;;17.5;;
62457;SDS011;48509;52.122;5.250;2024-02-21T07:34:58;35.5;;;17.91;;
62457;SDS011;48509;52.122;5.250;2024-02-21T07:36:34;33.6;;;17.3;;
62457;SDS011;48509;52.122;5.250;2024-02-21T07:38:11;34.6;;;15.9;;
62457;SDS011;48509;52.122;5.250;2024-02-21T07:41:23;34.6;;;15.9;;
62457;SDS011;48509;52.122;5.250;2024-02-21T07:43:00;37.6;;;17.2;;
62457;SDS011;48509;52.122;5.250;2024-02-21T07:44:36;33.1;;;16.9;;
62457;SDS011;48509;52.122;5.250;2024-02-21T07:46:12;33.8;;;17.41;;
62457;SDS011;48509;52.122;5.250;2024-02-21T07:49:25;34.9;;;16.5;;
62457;SDS011;48509;52.122;5.250;2024-02-21T07:51:01;30.6;;;17.5;;
62457;SDS011;48509;52.122;5.250;2024-02-21T07:52:37;35.4;;;17.0;;
62457;SDS011;48509;52.122;5.250;2024-02-21T07:55:50;34.6;;;17.11;;
62457;SDS011;48509;52.122;5.250;2024-02-21T07:57:26;28.9;;;15.6;;
62457;SDS011;48509;52.122;5.250;2024-02-21T07:59:02;27.0;;;15.7;;
62457;SDS011;48509;52.122;5.250;2024-02-21T08:02:14;35.71;;;16.9;;
62457;SDS011;48509;52.122;5.250;2024-02-21T08:03:51;28.1;;;15.8;;
62457;SDS011;48509;52.122;5.250;2024-02-21T08:05:28;34.1;;;15.6;;
62457;SDS011;48509;52.122;5.250;2024-02-21T08:07:04;34.21;;;16.4;;
62457;SDS011;48509;52.122;5.250;2024-02-21T08:10:17;37.21;;;16.8;;
62457;SDS011;48509;52.122;5.250;2024-02-21T08:11:53;37.21;;;16.8;;
62457;SDS011;48509;52.122;5.250;2024-02-21T08:13:30;29.6;;;16.0;;
62457;SDS011;48509;52.122;5.250;2024-02-21T08:16:44;33.4;;;17.91;;
62457;SDS011;48509;52.122;5.250;2024-02-21T08:18:23;29.7;;;15.9;;
62457;SDS011;48509;52.122;5.250;2024-02-21T08:19:59;29.7;;;16.7;;
62457;SDS011;48509;52.122;5.250;2024-02-21T08:23:12;25.7;;;14.9;;
62457;SDS011;48509;52.122;5.250;2024-02-21T08:24:48;29.3;;;15.9;;
62457;SDS011;48509;52.122;5.250;2024-02-21T08:26:24;30.4;;;15.0;;
62457;SDS011;48509;52.122;5.250;2024-02-21T08:28:00;27.6;;;15.2;;
62457;SDS011;48509;52.122;5.250;2024-02-21T08:31:17;30.4;;;14.9;;
62457;SDS011;48509;52.122;5.250;2024-02-21T08:32:54;26.4;;;15.4;;
62457;SDS011;48509;52.122;5.250;2024-02-21T08:34:30;28.0;;;16.11;;
62457;SDS011;48509;52.122;5.250;2024-02-21T08:37:42;32.6;;;16.61;;
62457;SDS011;48509;52.122;5.250;2024-02-21T08:39:19;33.6;;;17.11;;
62457;SDS011;48509;52.122;5.250;2024-02-21T08:40:55;31.9;;;17.2;;
62457;SDS011;48509;52.122;5.250;2024-02-21T08:44:10;28.8;;;16.8;;
62457;SDS011;48509;52.122;5.250;2024-02-21T08:45:46;32.3;;;17.3;;
62457;SDS011;48509;52.122;5.250;2024-02-21T08:47:22;43.6;;;18.0;;
62457;SDS011;48509;52.122;5.250;2024-02-21T08:48:58;32.9;;;18.41;;
62457;SDS011;48509;52.122;5.250;2024-02-21T08:52:10;33.8;;;19.0;;
62457;SDS011;48509;52.122;5.250;2024-02-21T08:53:47;33.9;;;19.2;;
62457;SDS011;48509;52.122;5.250;2024-02-21T08:55:25;31.4;;;18.7;;
62457;SDS011;48509;52.122;5.250;2024-02-21T08:58:37;29.7;;;17.41;;
62457;SDS011;48509;52.122;5.250;2024-02-21T09:00:15;32.5;;;17.91;;
62457;SDS011;48509;52.122;5.250;2024-02-21T09:01:52;34.1;;;17.11;;
62457;SDS011;48509;52.122;5.250;2024-02-21T09:05:04;30.3;;;17.11;;
62457;SDS011;48509;52.122;5.250;2024-02-21T09:06:44;29.2;;;16.5;;
62457;SDS011;48509;52.122;5.250;2024-02-21T09:08:20;33.6;;;17.41;;
62457;SDS011;48509;52.122;5.250;2024-02-21T09:09:56;26.8;;;16.4;;
62457;SDS011;48509;52.122;5.250;2024-02-21T09:13:10;29.1;;;16.7;;
62457;SDS011;48509;52.122;5.250;2024-02-21T09:14:46;28.4;;;15.3;;
62457;SDS011;48509;52.122;5.250;2024-02-21T09:16:22;28.2;;;15.4;;
62457;SDS011;48509;52.122;5.250;2024-02-21T09:19:35;27.6;;;14.7;;
62457;SDS011;48509;52.122;5.250;2024-02-21T09:21:11;26.9;;;15.3;;
62457;SDS011;48509;52.122;5.250;2024-02-21T09:22:48;24.6;;;14.4;;
62457;SDS011;48509;52.122;5.250;2024-02-21T09:26:00;26.9;;;14.7;;
62457;SDS011;48509;52.122;5.250;2024-02-21T09:27:37;29.6;;;14.5;;
62457;SDS011;48509;52.122;5.250;2024-02-21T09:29:13;24.0;;;13.6;;
62457;SDS011;48509;52.122;5.250;2024-02-21T09:30:51;26.6;;;13.9;;
62457;SDS011;48509;52.122;5.250;2024-02-21T09:34:03;26.0;;;13.4;;
62457;SDS011;48509;52.122;5.250;2024-02-21T09:35:39;27.2;;;14.0;;
62457;SDS011;48509;52.122;5.250;2024-02-21T09:37:15;29.8;;;14.4;;
62457;SDS011;48509;52.122;5.250;2024-02-21T09:40:31;26.9;;;13.9;;
62457;SDS011;48509;52.122;5.250;2024-02-21T09:42:08;24.7;;;13.8;;
62457;SDS011;48509;52.122;5.250;2024-02-21T09:43:47;23.8;;;12.6;;
62457;SDS011;48509;52.122;5.250;2024-02-21T09:45:25;23.3;;;12.9;;
62457;SDS011;48509;52.122;5.250;2024-02-21T09:48:42;26.2;;;13.2;;
62457;SDS011;48509;52.122;5.250;2024-02-21T09:50:34;25.1;;;13.0;;
62457;SDS011;48509;52.122;5.250;2024-02-21T09:52:14;20.5;;;12.4;;
62457;SDS011;48509;52.122;5.250;2024-02-21T09:53:51;22.1;;;12.6;;
62457;SDS011;48509;52.122;5.250;2024-02-21T09:57:08;21.4;;;12.1;;
62457;SDS011;48509;52.122;5.250;2024-02-21T09:58:44;20.0;;;11.7;;
62457;SDS011;48509;52.122;5.250;2024-02-21T10:00:22;25.5;;;11.5;;
62457;SDS011;48509;52.122;5.250;2024-02-21T10:03:37;23.8;;;11.6;;
62457;SDS011;48509;52.122;5.250;2024-02-21T10:05:14;19.61;;;11.3;;
62457;SDS011;48509;52.122;5.250;2024-02-21T10:06:50;20.6;;;11.9;;
62457;SDS011;48509;52.122;5.250;2024-02-21T10:08:26;20.7;;;11.2;;
62457;SDS011;48509;52.122;5.250;2024-02-21T10:11:40;20.2;;;11.0;;
62457;SDS011;48509;52.122;5.250;2024-02-21T10:13:23;20.3;;;9.9;;
62457;SDS011;48509;52.122;5.250;2024-02-21T10:15:01;23.2;;;10.9;;
62457;SDS011;48509;52.122;5.250;2024-02-21T10:18:14;18.41;;;10.8;;
62457;SDS011;48509;52.122;5.250;2024-02-21T10:19:53;21.5;;;9.9;;
62457;SDS011;48509;52.122;5.250;2024-02-21T10:21:29;20.41;;;10.6;;
62457;SDS011;48509;52.122;5.250;2024-02-21T10:23:06;18.3;;;10.0;;
62457;SDS011;48509;52.122;5.250;2024-02-21T10:26:21;19.0;;;10.4;;
62457;SDS011;48509;52.122;5.250;2024-02-21T10:27:58;15.6;;;9.0;;
62457;SDS011;48509;52.122;5.250;2024-02-21T10:29:34;16.5;;;9.1;;
62457;SDS011;48509;52.122;5.250;2024-02-21T10:32:57;15.4;;;9.21;;
62457;SDS011;48509;52.122;5.250;2024-02-21T10:34:33;14.1;;;9.4;;
62457;SDS011;48509;52.122;5.250;2024-02-21T10:36:11;16.11;;;8.81;;
62457;SDS011;48509;52.122;5.250;2024-02-21T10:37:47;15.8;;;9.0;;
62457;SDS011;48509;52.122;5.250;2024-02-21T10:41:00;15.1;;;9.0;;
62457;SDS011;48509;52.122;5.250;2024-02-21T10:42:36;17.3;;;9.21;;
62457;SDS011;48509;52.122;5.250;2024-02-21T10:44:13;15.8;;;9.5;;
62457;SDS011;48509;52.122;5.250;2024-02-21T10:47:34;17.8;;;8.81;;
62457;SDS011;48509;52.122;5.250;2024-02-21T10:49:16;14.0;;;8.71;;
62457;SDS011;48509;52.122;5.250;2024-02-21T10:51:01;13.7;;;8.6;;
62457;SDS011;48509;52.122;5.250;2024-02-21T10:52:48;14.1;;;8.4;;
62457;SDS011;48509;52.122;5.250;2024-02-21T10:54:39;13.6;;;8.31;;
62457;SDS011;48509;52.122;5.250;2024-02-21T10:58:07;13.5;;;7.8;;
62457;SDS011;48509;52.122;5.250;2024-02-21T10:59:46;12.4;;;7.2;;
62457;SDS011;48509;52.122;5.250;2024-02-21T11:01:24;12.0;;;7.6;;
62457;SDS011;48509;52.122;5.250;2024-02-21T11:03:02;12.0;;;7.6;;
62457;SDS011;48509;52.122;5.250;2024-02-21T11:06:17;13.9;;;7.7;;
62457;SDS011;48509;52.122;5.250;2024-02-21T11:07:55;13.7;;;7.2;;
62457;SDS011;48509;52.122;5.250;2024-02-21T11:09:33;12.2;;;8.0;;
62457;SDS011;48509;52.122;5.250;2024-02-21T11:11:11;9.21;;;7.2;;
62457;SDS011;48509;52.122;5.250;2024-02-21T11:14:28;11.5;;;7.9;;
62457;SDS011;48509;52.122;5.250;2024-02-21T11:16:05;10.5;;;7.8;;
62457;SDS011;48509;52.122;5.250;2024-02-21T11:17:53;13.6;;;8.71;;
62457;SDS011;48509;52.122;5.250;2024-02-21T11:19:30;11.4;;;8.4;;
62457;SDS011;48509;52.122;5.250;2024-02-21T11:22:42;13.9;;;9.31;;
62457;SDS011;48509;52.122;5.250;2024-02-21T11:24:25;12.5;;;9.31;;
62457;SDS011;48509;52.122;5.250;2024-02-21T11:26:04;15.0;;;10.21;;
62457;SDS011;48509;52.122;5.250;2024-02-21T11:29:23;15.1;;;9.9;;
62457;SDS011;48509;52.122;5.250;2024-02-21T11:31:07;14.3;;;11.1;;
62457;SDS011;48509;52.122;5.250;2024-02-21T11:32:45;17.41;;;11.3;;
62457;SDS011;48509;52.122;5.250;2024-02-21T11:34:21;16.4;;;11.5;;
62457;SDS011;48509;52.122;5.250;2024-02-21T11:37:34;14.7;;;10.8;;
62457;SDS011;48509;52.122;5.250;2024-02-21T11:39:11;14.4;;;11.1;;
62457;SDS011;48509;52.122;5.250;2024-02-21T11:44:03;17.61;;;12.3;;
62457;SDS011;48509;52.122;5.250;2024-02-21T11:45:40;18.0;;;11.2;;
62457;SDS011;48509;52.122;5.250;2024-02-21T11:47:16;15.6;;;11.8;;
62457;SDS011;48509;52.122;5.250;2024-02-21T11:48:52;14.5;;;10.21;;
62457;SDS011;48509;52.122;5.250;2024-02-21T11:52:05;14.2;;;10.4;;
62457;SDS011;48509;52.122;5.250;2024-02-21T11:53:42;16.11;;;10.3;;
62457;SDS011;48509;52.122;5.250;2024-02-21T11:55:18;14.6;;;9.81;;
62457;SDS011;48509;52.122;5.250;2024-02-21T11:58:31;15.2;;;10.8;;
62457;SDS011;48509;52.122;5.250;2024-02-21T12:00:12;17.2;;;9.6;;
62457;SDS011;48509;52.122;5.250;2024-02-21T12:01:52;16.4;;;11.0;;
62457;SDS011;48509;52.122;5.250;2024-02-21T12:03:29;14.8;;;10.1;;
62457;SDS011;48509;52.122;5.250;2024-02-21T12:06:43;13.4;;;8.9;;
62457;SDS011;48509;52.122;5.250;2024-02-21T12:08:20;12.1;;;8.81;;
62457;SDS011;48509;52.122;5.250;2024-02-21T12:13:10;11.7;;;8.71;;
62457;SDS011;48509;52.122;5.250;2024-02-21T12:14:46;15.1;;;9.4;;
62457;SDS011;48509;52.122;5.250;2024-02-21T12:16:31;20.5;;;9.0;;
62457;SDS011;48509;52.122;5.250;2024-02-21T12:18:08;15.6;;;8.81;;
62457;SDS011;48509;52.122;5.250;2024-02-21T12:21:23;14.7;;;8.5;;
62457;SDS011;48509;52.122;5.250;2024-02-21T12:23:00;13.2;;;9.4;;
62457;SDS011;48509;52.122;5.250;2024-02-21T12:24:37;13.6;;;8.81;;
62457;SDS011;48509;52.122;5.250;2024-02-21T12:27:49;15.0;;;8.9;;
62457;SDS011;48509;52.122;5.250;2024-02-21T12:29:25;12.4;;;8.71;;
62457;SDS011;48509;52.122;5.250;2024-02-21T12:31:01;12.7;;;8.6;;
62457;SDS011;48509;52.122;5.250;2024-02-21T12:34:14;11.4;;;8.5;;
62457;SDS011;48509;52.122;5.250;2024-02-21T12:35:51;17.41;;;9.1;;
62457;SDS011;48509;52.122;5.250;2024-02-21T12:37:27;16.11;;;8.1;;
62457;SDS011;48509;52.122;5.250;2024-02-21T12:39:03;16.0;;;8.5;;
62457;SDS011;48509;52.122;5.250;2024-02-21T12:42:15;13.7;;;8.1;;
62457;SDS011;48509;52.122;5.250;2024-02-21T12:43:51;14.1;;;8.31;;
62457;SDS011;48509;52.122;5.250;2024-02-21T12:45:27;14.0;;;7.8;;
62457;SDS011;48509;52.122;5.250;2024-02-21T12:48:40;15.0;;;8.71;;